sensor_id;sensor_type;location;lat;lon;timestamp;P1;durP1;ratioP1;P2;durP2;ratioP2
78288;SDS011;67539;48.752;12.922;2024-03-23T00:54:09;16.95;;;12.02;;
78288;SDS011;67539;48.752;12.922;2024-03-23T00:56:37;18.85;;;12.93;;
78288;SDS011;67539;48.752;12.922;2024-03-23T00:59:03;16.95;;;13.00;;
78288;SDS011;67539;48.752;12.922;2024-03-23T01:01:30;15.88;;;12.73;;
78288;SDS011;67539;48.752;12.922;2024-03-23T01:03:56;16.33;;;12.57;;
78288;SDS011;67539;48.752;12.922;2024-03-23T01:06:24;18.23;;;13.30;;
78288;SDS011;67539;48.752;12.922;2024-03-23T01:08:51;19.20;;;12.07;;
78288;SDS011;67539;48.752;12.922;2024-03-23T01:11:19;18.88;;;13.27;;
78288;SDS011;67539;48.752;12.922;2024-03-23T01:13:45;15.82;;;12.85;;
78288;SDS011;67539;48.752;12.922;2024-03-23T01:16:13;17.30;;;13.55;;
78288;SDS011;67539;48.752;12.922;2024-03-23T01:18:39;17.23;;;12.88;;
78288;SDS011;67539;48.752;12.922;2024-03-23T01:21:06;15.70;;;13.32;;
78288;SDS011;67539;48.752;12.922;2024-03-23T01:23:32;18.80;;;12.77;;
78288;SDS011;67539;48.752;12.922;2024-03-23T01:25:59;16.42;;;13.07;;
78288;SDS011;67539;48.752;12.922;2024-03-23T01:28:27;18.50;;;14.13;;
78288;SDS011;67539;48.752;12.922;2024-03-23T01:30:54;20.33;;;16.40;;
78288;SDS011;67539;48.752;12.922;2024-03-23T01:33:20;20.83;;;14.18;;
78288;SDS011;67539;48.752;12.922;2024-03-23T01:35:47;15.00;;;13.43;;
78288;SDS011;67539;48.752;12.922;2024-03-23T01:38:13;18.08;;;13.77;;
78288;SDS011;67539;48.752;12.922;2024-03-23T01:40:41;18.08;;;13.45;;
78288;SDS011;67539;48.752;12.922;2024-03-23T01:43:07;15.50;;;12.82;;
78288;SDS011;67539;48.752;12.922;2024-03-23T01:45:36;15.13;;;13.52;;
78288;SDS011;67539;48.752;12.922;2024-03-23T01:48:02;17.75;;;13.32;;
78288;SDS011;67539;48.752;12.922;2024-03-23T01:50:30;16.70;;;13.80;;
78288;SDS011;67539;48.752;12.922;2024-03-23T01:52:59;18.60;;;13.55;;
78288;SDS011;67539;48.752;12.922;2024-03-23T01:55:29;15.30;;;12.85;;
78288;SDS011;67539;48.752;12.922;2024-03-23T01:57:56;16.17;;;13.45;;
78288;SDS011;67539;48.752;12.922;2024-03-23T02:00:23;17.55;;;12.95;;
78288;SDS011;67539;48.752;12.922;2024-03-23T02:02:52;15.70;;;12.80;;
78288;SDS011;67539;48.752;12.922;2024-03-23T02:05:19;18.35;;;13.75;;
78288;SDS011;67539;48.752;12.922;2024-03-23T02:07:45;15.70;;;13.75;;
78288;SDS011;67539;48.752;12.922;2024-03-23T02:10:12;15.25;;;13.05;;
78288;SDS011;67539;48.752;12.922;2024-03-23T02:12:38;20.50;;;14.13;;
78288;SDS011;67539;48.752;12.922;2024-03-23T02:15:06;15.93;;;12.82;;
78288;SDS011;67539;48.752;12.922;2024-03-23T02:17:34;19.25;;;14.30;;
78288;SDS011;67539;48.752;12.922;2024-03-23T02:20:04;18.00;;;13.38;;
78288;SDS011;67539;48.752;12.922;2024-03-23T02:22:35;16.63;;;12.15;;
78288;SDS011;67539;48.752;12.922;2024-03-23T02:25:05;17.30;;;12.60;;
78288;SDS011;67539;48.752;12.922;2024-03-23T02:27:32;15.30;;;12.65;;
78288;SDS011;67539;48.752;12.922;2024-03-23T02:30:00;17.00;;;14.32;;
78288;SDS011;67539;48.752;12.922;2024-03-23T02:32:26;16.10;;;13.43;;
78288;SDS011;67539;48.752;12.922;2024-03-23T02:34:53;16.65;;;13.30;;
78288;SDS011;67539;48.752;12.922;2024-03-23T02:37:19;15.07;;;12.25;;
78288;SDS011;67539;48.752;12.922;2024-03-23T02:39:47;17.67;;;12.98;;
78288;SDS011;67539;48.752;12.922;2024-03-23T02:42:14;17.80;;;13.63;;
78288;SDS011;67539;48.752;12.922;2024-03-23T02:44:43;18.27;;;12.82;;
78288;SDS011;67539;48.752;12.922;2024-03-23T02:47:10;16.90;;;14.73;;
78288;SDS011;67539;48.752;12.922;2024-03-23T02:49:37;17.15;;;12.68;;
78288;SDS011;67539;48.752;12.922;2024-03-23T02:52:03;15.45;;;12.70;;
78288;SDS011;67539;48.752;12.922;2024-03-23T02:54:30;17.83;;;14.07;;
78288;SDS011;67539;48.752;12.922;2024-03-23T02:56:56;19.98;;;13.20;;
78288;SDS011;67539;48.752;12.922;2024-03-23T02:59:25;15.32;;;13.52;;
78288;SDS011;67539;48.752;12.922;2024-03-23T03:01:51;16.77;;;14.90;;
78288;SDS011;67539;48.752;12.922;2024-03-23T03:04:18;17.70;;;13.95;;
78288;SDS011;67539;48.752;12.922;2024-03-23T03:06:46;21.83;;;15.02;;
78288;SDS011;67539;48.752;12.922;2024-03-23T03:09:14;18.92;;;14.40;;
78288;SDS011;67539;48.752;12.922;2024-03-23T03:11:40;18.55;;;14.35;;
78288;SDS011;67539;48.752;12.922;2024-03-23T03:14:08;20.45;;;15.27;;
78288;SDS011;67539;48.752;12.922;2024-03-23T03:16:35;19.50;;;14.75;;
78288;SDS011;67539;48.752;12.922;2024-03-23T03:19:02;16.27;;;14.45;;
78288;SDS011;67539;48.752;12.922;2024-03-23T03:21:28;19.70;;;15.65;;
78288;SDS011;67539;48.752;12.922;2024-03-23T03:23:56;20.92;;;14.52;;
78288;SDS011;67539;48.752;12.922;2024-03-23T03:26:22;18.33;;;14.32;;
78288;SDS011;67539;48.752;12.922;2024-03-23T03:28:49;17.80;;;13.73;;
78288;SDS011;67539;48.752;12.922;2024-03-23T03:31:16;20.63;;;14.65;;
78288;SDS011;67539;48.752;12.922;2024-03-23T03:33:45;17.23;;;13.27;;
78288;SDS011;67539;48.752;12.922;2024-03-23T03:36:12;17.85;;;13.40;;
78288;SDS011;67539;48.752;12.922;2024-03-23T03:38:39;14.70;;;12.95;;
78288;SDS011;67539;48.752;12.922;2024-03-23T03:41:05;17.75;;;13.65;;
78288;SDS011;67539;48.752;12.922;2024-03-23T03:43:32;19.73;;;13.68;;
78288;SDS011;67539;48.752;12.922;2024-03-23T03:45:59;17.65;;;12.50;;
78288;SDS011;67539;48.752;12.922;2024-03-23T03:48:27;16.42;;;12.65;;
78288;SDS011;67539;48.752;12.922;2024-03-23T03:50:55;16.15;;;12.75;;
78288;SDS011;67539;48.752;12.922;2024-03-23T03:53:22;15.60;;;12.57;;
78288;SDS011;67539;48.752;12.922;2024-03-23T03:55:48;14.75;;;12.77;;
78288;SDS011;67539;48.752;12.922;2024-03-23T03:58:15;16.75;;;12.57;;
78288;SDS011;67539;48.752;12.922;2024-03-23T04:00:41;18.42;;;12.93;;
78288;SDS011;67539;48.752;12.922;2024-03-23T04:03:08;17.52;;;13.98;;
78288;SDS011;67539;48.752;12.922;2024-03-23T04:05:35;17.17;;;12.80;;
78288;SDS011;67539;48.752;12.922;2024-03-23T04:08:03;17.77;;;12.25;;
78288;SDS011;67539;48.752;12.922;2024-03-23T04:10:30;14.60;;;12.27;;
78288;SDS011;67539;48.752;12.922;2024-03-23T04:12:57;14.65;;;11.98;;
78288;SDS011;67539;48.752;12.922;2024-03-23T04:15:23;15.15;;;12.27;;
78288;SDS011;67539;48.752;12.922;2024-03-23T04:17:50;16.40;;;13.10;;
78288;SDS011;67539;48.752;12.922;2024-03-23T04:20:17;16.67;;;12.88;;
78288;SDS011;67539;48.752;12.922;2024-03-23T04:22:44;18.38;;;13.00;;
78288;SDS011;67539;48.752;12.922;2024-03-23T04:25:11;17.10;;;12.23;;
78288;SDS011;67539;48.752;12.922;2024-03-23T04:27:39;19.25;;;14.15;;
78288;SDS011;67539;48.752;12.922;2024-03-23T04:30:06;15.27;;;12.88;;
78288;SDS011;67539;48.752;12.922;2024-03-23T04:32:36;17.05;;;13.30;;
78288;SDS011;67539;48.752;12.922;2024-03-23T04:35:02;16.00;;;12.45;;
78288;SDS011;67539;48.752;12.922;2024-03-23T04:37:32;17.63;;;14.23;;
78288;SDS011;67539;48.752;12.922;2024-03-23T04:40:00;18.10;;;13.85;;
78288;SDS011;67539;48.752;12.922;2024-03-23T04:42:30;17.10;;;13.65;;
78288;SDS011;67539;48.752;12.922;2024-03-23T04:44:58;18.42;;;13.25;;
78288;SDS011;67539;48.752;12.922;2024-03-23T04:47:25;17.60;;;14.85;;
78288;SDS011;67539;48.752;12.922;2024-03-23T04:49:52;19.58;;;14.77;;
78288;SDS011;67539;48.752;12.922;2024-03-23T04:52:19;17.15;;;12.63;;
78288;SDS011;67539;48.752;12.922;2024-03-23T04:54:46;15.02;;;12.65;;
78288;SDS011;67539;48.752;12.922;2024-03-23T04:57:14;16.15;;;12.50;;
78288;SDS011;67539;48.752;12.922;2024-03-23T04:59:47;19.45;;;13.85;;
78288;SDS011;67539;48.752;12.922;2024-03-23T05:02:13;15.98;;;11.57;;
78288;SDS011;67539;48.752;12.922;2024-03-23T05:04:40;20.13;;;13.73;;
78288;SDS011;67539;48.752;12.922;2024-03-23T05:07:06;17.63;;;13.73;;
78288;SDS011;67539;48.752;12.922;2024-03-23T05:09:33;17.15;;;13.25;;
78288;SDS011;67539;48.752;12.922;2024-03-23T05:12:00;17.92;;;13.75;;
78288;SDS011;67539;48.752;12.922;2024-03-23T05:14:27;18.55;;;13.73;;
78288;SDS011;67539;48.752;12.922;2024-03-23T05:16:55;18.77;;;14.55;;
78288;SDS011;67539;48.752;12.922;2024-03-23T05:19:22;24.40;;;16.65;;
78288;SDS011;67539;48.752;12.922;2024-03-23T05:21:49;20.42;;;15.45;;
78288;SDS011;67539;48.752;12.922;2024-03-23T05:24:16;21.10;;;16.00;;
78288;SDS011;67539;48.752;12.922;2024-03-23T05:26:42;20.42;;;15.55;;
78288;SDS011;67539;48.752;12.922;2024-03-23T05:29:09;21.10;;;15.35;;
78288;SDS011;67539;48.752;12.922;2024-03-23T05:31:39;17.65;;;15.63;;
78288;SDS011;67539;48.752;12.922;2024-03-23T05:34:08;21.50;;;15.30;;
78288;SDS011;67539;48.752;12.922;2024-03-23T05:36:34;19.27;;;16.00;;
78288;SDS011;67539;48.752;12.922;2024-03-23T05:39:03;20.52;;;14.57;;
78288;SDS011;67539;48.752;12.922;2024-03-23T05:41:29;19.45;;;15.93;;
78288;SDS011;67539;48.752;12.922;2024-03-23T05:43:56;21.52;;;16.58;;
78288;SDS011;67539;48.752;12.922;2024-03-23T05:46:22;22.13;;;16.00;;
78288;SDS011;67539;48.752;12.922;2024-03-23T05:48:50;21.23;;;14.85;;
78288;SDS011;67539;48.752;12.922;2024-03-23T05:51:26;24.00;;;15.60;;
78288;SDS011;67539;48.752;12.922;2024-03-23T05:53:53;17.05;;;14.27;;
78288;SDS011;67539;48.752;12.922;2024-03-23T05:56:19;17.75;;;14.30;;
78288;SDS011;67539;48.752;12.922;2024-03-23T05:58:47;18.83;;;13.35;;
78288;SDS011;67539;48.752;12.922;2024-03-23T06:01:15;20.33;;;14.25;;
78288;SDS011;67539;48.752;12.922;2024-03-23T06:03:41;19.00;;;14.00;;
78288;SDS011;67539;48.752;12.922;2024-03-23T06:06:09;16.77;;;12.55;;
78288;SDS011;67539;48.752;12.922;2024-03-23T06:08:38;18.30;;;13.80;;
78288;SDS011;67539;48.752;12.922;2024-03-23T06:11:06;20.17;;;14.57;;
78288;SDS011;67539;48.752;12.922;2024-03-23T06:13:32;17.20;;;12.98;;
78288;SDS011;67539;48.752;12.922;2024-03-23T06:16:00;18.52;;;13.93;;
78288;SDS011;67539;48.752;12.922;2024-03-23T06:18:26;17.52;;;13.35;;
78288;SDS011;67539;48.752;12.922;2024-03-23T06:20:54;19.92;;;13.85;;
78288;SDS011;67539;48.752;12.922;2024-03-23T06:23:20;16.95;;;12.90;;
78288;SDS011;67539;48.752;12.922;2024-03-23T06:25:48;21.45;;;14.20;;
78288;SDS011;67539;48.752;12.922;2024-03-23T06:28:15;17.10;;;13.10;;
78288;SDS011;67539;48.752;12.922;2024-03-23T06:30:43;15.77;;;12.50;;
78288;SDS011;67539;48.752;12.922;2024-03-23T06:33:09;18.92;;;12.88;;
78288;SDS011;67539;48.752;12.922;2024-03-23T06:35:37;18.20;;;13.98;;
78288;SDS011;67539;48.752;12.922;2024-03-23T06:38:03;19.02;;;13.50;;
78288;SDS011;67539;48.752;12.922;2024-03-23T06:40:30;16.95;;;13.30;;
78288;SDS011;67539;48.752;12.922;2024-03-23T06:42:58;17.85;;;12.38;;
78288;SDS011;67539;48.752;12.922;2024-03-23T06:45:25;17.90;;;13.95;;
78288;SDS011;67539;48.752;12.922;2024-03-23T06:47:51;15.48;;;13.32;;
78288;SDS011;67539;48.752;12.922;2024-03-23T06:50:20;18.92;;;14.50;;
78288;SDS011;67539;48.752;12.922;2024-03-23T06:52:49;17.15;;;13.27;;
78288;SDS011;67539;48.752;12.922;2024-03-23T06:55:16;18.80;;;13.02;;
78288;SDS011;67539;48.752;12.922;2024-03-23T06:57:42;18.63;;;12.38;;
78288;SDS011;67539;48.752;12.922;2024-03-23T07:00:12;16.73;;;12.95;;
78288;SDS011;67539;48.752;12.922;2024-03-23T07:02:40;16.63;;;13.18;;
78288;SDS011;67539;48.752;12.922;2024-03-23T07:05:09;16.15;;;12.85;;
78288;SDS011;67539;48.752;12.922;2024-03-23T07:07:36;16.00;;;11.98;;
78288;SDS011;67539;48.752;12.922;2024-03-23T07:10:04;16.15;;;13.82;;
78288;SDS011;67539;48.752;12.922;2024-03-23T07:12:32;14.85;;;13.10;;
78288;SDS011;67539;48.752;12.922;2024-03-23T07:14:59;15.02;;;12.35;;
78288;SDS011;67539;48.752;12.922;2024-03-23T07:17:26;14.52;;;12.60;;
78288;SDS011;67539;48.752;12.922;2024-03-23T07:19:53;15.60;;;12.27;;
78288;SDS011;67539;48.752;12.922;2024-03-23T07:22:20;15.30;;;12.55;;
78288;SDS011;67539;48.752;12.922;2024-03-23T07:24:47;14.55;;;11.85;;
78288;SDS011;67539;48.752;12.922;2024-03-23T07:27:13;16.70;;;11.45;;
78288;SDS011;67539;48.752;12.922;2024-03-23T07:29:40;16.05;;;12.30;;
78288;SDS011;67539;48.752;12.922;2024-03-23T07:32:06;13.57;;;10.88;;
78288;SDS011;67539;48.752;12.922;2024-03-23T07:34:35;13.27;;;10.45;;
78288;SDS011;67539;48.752;12.922;2024-03-23T07:37:01;13.32;;;10.65;;
78288;SDS011;67539;48.752;12.922;2024-03-23T07:39:30;13.88;;;9.95;;
78288;SDS011;67539;48.752;12.922;2024-03-23T07:41:58;11.55;;;9.50;;
78288;SDS011;67539;48.752;12.922;2024-03-23T07:44:25;11.80;;;9.10;;
78288;SDS011;67539;48.752;12.922;2024-03-23T07:46:51;10.60;;;8.07;;
78288;SDS011;67539;48.752;12.922;2024-03-23T07:49:18;9.57;;;7.80;;
78288;SDS011;67539;48.752;12.922;2024-03-23T07:51:46;10.60;;;7.93;;
78288;SDS011;67539;48.752;12.922;2024-03-23T07:54:13;7.63;;;6.70;;
78288;SDS011;67539;48.752;12.922;2024-03-23T07:56:39;8.68;;;7.07;;
78288;SDS011;67539;48.752;12.922;2024-03-23T07:59:07;9.80;;;6.20;;
78288;SDS011;67539;48.752;12.922;2024-03-23T08:01:33;7.22;;;6.43;;
78288;SDS011;67539;48.752;12.922;2024-03-23T08:04:00;9.18;;;6.22;;
78288;SDS011;67539;48.752;12.922;2024-03-23T08:06:26;9.27;;;6.80;;
78288;SDS011;67539;48.752;12.922;2024-03-23T08:08:55;9.27;;;5.97;;
78288;SDS011;67539;48.752;12.922;2024-03-23T08:11:25;6.88;;;5.70;;
78288;SDS011;67539;48.752;12.922;2024-03-23T08:13:52;7.15;;;5.70;;
78288;SDS011;67539;48.752;12.922;2024-03-23T08:16:19;6.93;;;5.85;;
78288;SDS011;67539;48.752;12.922;2024-03-23T08:18:46;8.48;;;5.93;;
78288;SDS011;67539;48.752;12.922;2024-03-23T08:21:13;9.10;;;5.53;;
78288;SDS011;67539;48.752;12.922;2024-03-23T08:23:40;8.70;;;5.18;;
78288;SDS011;67539;48.752;12.922;2024-03-23T08:26:08;7.50;;;5.53;;
78288;SDS011;67539;48.752;12.922;2024-03-23T08:28:36;6.82;;;5.00;;
78288;SDS011;67539;48.752;12.922;2024-03-23T08:31:04;6.60;;;5.05;;
78288;SDS011;67539;48.752;12.922;2024-03-23T08:33:33;5.43;;;4.70;;
78288;SDS011;67539;48.752;12.922;2024-03-23T08:36:00;7.38;;;4.88;;
78288;SDS011;67539;48.752;12.922;2024-03-23T08:38:28;7.10;;;5.15;;
78288;SDS011;67539;48.752;12.922;2024-03-23T08:40:58;6.78;;;4.00;;
78288;SDS011;67539;48.752;12.922;2024-03-23T08:43:27;4.97;;;2.45;;
78288;SDS011;67539;48.752;12.922;2024-03-23T08:45:53;4.03;;;2.38;;
78288;SDS011;67539;48.752;12.922;2024-03-23T08:48:20;4.35;;;2.60;;
78288;SDS011;67539;48.752;12.922;2024-03-23T08:50:46;4.75;;;3.10;;
78288;SDS011;67539;48.752;12.922;2024-03-23T08:53:24;7.88;;;5.03;;
78288;SDS011;67539;48.752;12.922;2024-03-23T08:55:52;6.75;;;5.03;;
78288;SDS011;67539;48.752;12.922;2024-03-23T08:58:20;7.20;;;4.97;;
78288;SDS011;67539;48.752;12.922;2024-03-23T09:00:47;6.15;;;4.40;;
78288;SDS011;67539;48.752;12.922;2024-03-23T09:03:14;6.85;;;3.65;;
78288;SDS011;67539;48.752;12.922;2024-03-23T09:05:41;4.32;;;3.35;;
78288;SDS011;67539;48.752;12.922;2024-03-23T09:08:08;4.45;;;2.78;;
78288;SDS011;67539;48.752;12.922;2024-03-23T09:10:37;5.22;;;3.35;;
78288;SDS011;67539;48.752;12.922;2024-03-23T09:13:05;3.20;;;2.03;;
78288;SDS011;67539;48.752;12.922;2024-03-23T09:15:32;3.35;;;2.47;;
78288;SDS011;67539;48.752;12.922;2024-03-23T09:18:01;4.00;;;2.95;;
78288;SDS011;67539;48.752;12.922;2024-03-23T09:20:27;4.55;;;2.78;;
78288;SDS011;67539;48.752;12.922;2024-03-23T09:22:54;4.40;;;3.30;;
78288;SDS011;67539;48.752;12.922;2024-03-23T09:25:20;4.57;;;2.97;;
78288;SDS011;67539;48.752;12.922;2024-03-23T09:27:47;6.90;;;3.60;;
78288;SDS011;67539;48.752;12.922;2024-03-23T09:30:15;4.00;;;2.85;;
78288;SDS011;67539;48.752;12.922;2024-03-23T09:32:42;4.78;;;3.72;;
78288;SDS011;67539;48.752;12.922;2024-03-23T09:35:11;4.72;;;2.95;;
78288;SDS011;67539;48.752;12.922;2024-03-23T09:37:37;3.97;;;3.03;;
78288;SDS011;67539;48.752;12.922;2024-03-23T09:40:06;5.15;;;3.35;;
78288;SDS011;67539;48.752;12.922;2024-03-23T09:42:36;6.22;;;2.70;;
78288;SDS011;67539;48.752;12.922;2024-03-23T09:45:04;3.85;;;2.80;;
78288;SDS011;67539;48.752;12.922;2024-03-23T09:47:32;3.58;;;3.00;;
78288;SDS011;67539;48.752;12.922;2024-03-23T09:50:00;3.03;;;1.80;;
78288;SDS011;67539;48.752;12.922;2024-03-23T09:52:27;3.88;;;2.10;;
78288;SDS011;67539;48.752;12.922;2024-03-23T09:54:54;3.40;;;2.30;;
78288;SDS011;67539;48.752;12.922;2024-03-23T09:57:21;3.40;;;2.28;;
78288;SDS011;67539;48.752;12.922;2024-03-23T09:59:48;5.55;;;2.22;;
78288;SDS011;67539;48.752;12.922;2024-03-23T10:02:15;2.75;;;2.00;;
78288;SDS011;67539;48.752;12.922;2024-03-23T10:04:46;4.45;;;2.40;;
78288;SDS011;67539;48.752;12.922;2024-03-23T10:07:12;3.95;;;2.40;;
78288;SDS011;67539;48.752;12.922;2024-03-23T10:09:41;3.40;;;2.30;;
78288;SDS011;67539;48.752;12.922;2024-03-23T10:12:08;4.28;;;2.40;;
78288;SDS011;67539;48.752;12.922;2024-03-23T10:14:37;3.97;;;2.45;;
78288;SDS011;67539;48.752;12.922;2024-03-23T10:17:11;4.38;;;2.90;;
78288;SDS011;67539;48.752;12.922;2024-03-23T10:19:40;4.82;;;2.78;;
78288;SDS011;67539;48.752;12.922;2024-03-23T10:22:08;4.53;;;2.72;;
78288;SDS011;67539;48.752;12.922;2024-03-23T10:24:36;5.07;;;2.40;;
78288;SDS011;67539;48.752;12.922;2024-03-23T10:27:03;4.18;;;2.35;;
78288;SDS011;67539;48.752;12.922;2024-03-23T10:29:31;4.80;;;2.80;;
78288;SDS011;67539;48.752;12.922;2024-03-23T10:32:07;4.97;;;3.08;;
78288;SDS011;67539;48.752;12.922;2024-03-23T10:34:35;5.68;;;3.13;;
78288;SDS011;67539;48.752;12.922;2024-03-23T10:37:02;5.40;;;3.30;;
78288;SDS011;67539;48.752;12.922;2024-03-23T10:39:31;5.80;;;2.92;;
78288;SDS011;67539;48.752;12.922;2024-03-23T10:42:00;5.18;;;3.42;;
78288;SDS011;67539;48.752;12.922;2024-03-23T10:44:33;4.43;;;3.05;;
78288;SDS011;67539;48.752;12.922;2024-03-23T10:47:00;4.03;;;2.88;;
78288;SDS011;67539;48.752;12.922;2024-03-23T10:49:28;5.10;;;3.15;;
78288;SDS011;67539;48.752;12.922;2024-03-23T10:51:59;4.90;;;3.33;;
78288;SDS011;67539;48.752;12.922;2024-03-23T10:54:27;5.57;;;3.47;;
78288;SDS011;67539;48.752;12.922;2024-03-23T10:56:57;5.10;;;3.05;;
78288;SDS011;67539;48.752;12.922;2024-03-23T10:59:29;4.20;;;2.58;;
78288;SDS011;67539;48.752;12.922;2024-03-23T11:01:57;6.82;;;4.18;;
78288;SDS011;67539;48.752;12.922;2024-03-23T11:04:31;5.53;;;4.32;;
78288;SDS011;67539;48.752;12.922;2024-03-23T11:07:11;4.43;;;3.15;;
78288;SDS011;67539;48.752;12.922;2024-03-23T11:12:25;7.18;;;3.40;;
78288;SDS011;67539;48.752;12.922;2024-03-23T11:15:03;6.22;;;4.10;;
78288;SDS011;67539;48.752;12.922;2024-03-23T11:17:30;6.00;;;4.10;;
78288;SDS011;67539;48.752;12.922;2024-03-23T11:19:58;5.53;;;3.53;;
78288;SDS011;67539;48.752;12.922;2024-03-23T11:22:38;4.60;;;3.25;;
78288;SDS011;67539;48.752;12.922;2024-03-23T11:25:13;7.13;;;4.40;;
78288;SDS011;67539;48.752;12.922;2024-03-23T11:27:40;5.72;;;4.10;;
78288;SDS011;67539;48.752;12.922;2024-03-23T11:30:13;7.40;;;3.55;;
78288;SDS011;67539;48.752;12.922;2024-03-23T11:32:40;4.00;;;3.03;;
78288;SDS011;67539;48.752;12.922;2024-03-23T11:35:07;4.93;;;3.15;;
78288;SDS011;67539;48.752;12.922;2024-03-23T11:37:35;3.38;;;2.30;;
78288;SDS011;67539;48.752;12.922;2024-03-23T11:40:19;2.92;;;2.20;;
78288;SDS011;67539;48.752;12.922;2024-03-23T11:42:46;1.88;;;1.42;;
78288;SDS011;67539;48.752;12.922;2024-03-23T11:45:14;2.15;;;1.60;;
78288;SDS011;67539;48.752;12.922;2024-03-23T11:47:44;2.38;;;1.60;;
78288;SDS011;67539;48.752;12.922;2024-03-23T11:50:18;3.28;;;1.70;;
78288;SDS011;67539;48.752;12.922;2024-03-23T11:52:45;2.20;;;1.92;;
78288;SDS011;67539;48.752;12.922;2024-03-23T11:55:12;2.80;;;1.77;;
78288;SDS011;67539;48.752;12.922;2024-03-23T11:57:39;2.45;;;1.77;;
78288;SDS011;67539;48.752;12.922;2024-03-23T12:02:49;2.33;;;1.83;;
78288;SDS011;67539;48.752;12.922;2024-03-23T12:05:16;1.52;;;1.20;;
78288;SDS011;67539;48.752;12.922;2024-03-23T12:07:43;1.60;;;1.10;;
78288;SDS011;67539;48.752;12.922;2024-03-23T12:10:10;1.92;;;1.08;;
78288;SDS011;67539;48.752;12.922;2024-03-23T12:12:36;2.00;;;1.20;;
78288;SDS011;67539;48.752;12.922;2024-03-23T12:15:04;0.88;;;0.80;;
78288;SDS011;67539;48.752;12.922;2024-03-23T12:17:32;1.33;;;1.13;;
78288;SDS011;67539;48.752;12.922;2024-03-23T12:20:01;1.70;;;0.95;;
78288;SDS011;67539;48.752;12.922;2024-03-23T12:22:28;1.48;;;1.02;;
78288;SDS011;67539;48.752;12.922;2024-03-23T12:24:56;2.22;;;1.35;;
78288;SDS011;67539;48.752;12.922;2024-03-23T12:27:22;2.20;;;1.35;;
78288;SDS011;67539;48.752;12.922;2024-03-23T12:29:50;1.33;;;1.05;;
78288;SDS011;67539;48.752;12.922;2024-03-23T12:32:16;1.92;;;1.40;;
78288;SDS011;67539;48.752;12.922;2024-03-23T12:34:45;1.73;;;1.42;;
78288;SDS011;67539;48.752;12.922;2024-03-23T12:37:12;2.30;;;1.40;;
78288;SDS011;67539;48.752;12.922;2024-03-23T12:39:40;1.05;;;0.70;;
78288;SDS011;67539;48.752;12.922;2024-03-23T12:42:06;1.55;;;1.20;;
78288;SDS011;67539;48.752;12.922;2024-03-23T12:44:33;2.13;;;0.93;;
78288;SDS011;67539;48.752;12.922;2024-03-23T12:46:59;1.10;;;1.00;;
78288;SDS011;67539;48.752;12.922;2024-03-23T12:49:26;1.85;;;1.05;;
78288;SDS011;67539;48.752;12.922;2024-03-23T12:51:55;1.67;;;1.10;;
78288;SDS011;67539;48.752;12.922;2024-03-23T12:54:23;1.20;;;1.10;;
78288;SDS011;67539;48.752;12.922;2024-03-23T12:56:49;2.65;;;1.48;;
78288;SDS011;67539;48.752;12.922;2024-03-23T12:59:16;2.22;;;1.20;;
78288;SDS011;67539;48.752;12.922;2024-03-23T13:01:43;2.17;;;1.40;;
78288;SDS011;67539;48.752;12.922;2024-03-23T13:04:11;1.80;;;1.30;;
78288;SDS011;67539;48.752;12.922;2024-03-23T13:06:37;2.17;;;1.10;;
78288;SDS011;67539;48.752;12.922;2024-03-23T13:09:06;2.75;;;1.15;;
78288;SDS011;67539;48.752;12.922;2024-03-23T13:11:32;2.42;;;1.33;;
78288;SDS011;67539;48.752;12.922;2024-03-23T13:13:59;2.45;;;1.40;;
78288;SDS011;67539;48.752;12.922;2024-03-23T13:16:25;3.38;;;1.63;;
78288;SDS011;67539;48.752;12.922;2024-03-23T13:18:52;2.55;;;1.35;;
78288;SDS011;67539;48.752;12.922;2024-03-23T13:21:18;4.03;;;1.80;;
78288;SDS011;67539;48.752;12.922;2024-03-23T13:23:46;3.92;;;1.88;;
78288;SDS011;67539;48.752;12.922;2024-03-23T13:26:14;2.70;;;1.52;;
78288;SDS011;67539;48.752;12.922;2024-03-23T13:28:41;3.13;;;1.73;;
78288;SDS011;67539;48.752;12.922;2024-03-23T13:31:08;2.08;;;1.35;;
78288;SDS011;67539;48.752;12.922;2024-03-23T13:33:35;1.35;;;0.90;;
78288;SDS011;67539;48.752;12.922;2024-03-23T13:36:02;1.27;;;0.90;;
78288;SDS011;67539;48.752;12.922;2024-03-23T13:38:29;1.48;;;1.00;;
78288;SDS011;67539;48.752;12.922;2024-03-23T13:40:56;1.50;;;0.95;;
78288;SDS011;67539;48.752;12.922;2024-03-23T13:43:27;4.53;;;1.23;;
78288;SDS011;67539;48.752;12.922;2024-03-23T13:45:54;3.63;;;2.25;;
78288;SDS011;67539;48.752;12.922;2024-03-23T13:48:23;1.65;;;1.20;;
78288;SDS011;67539;48.752;12.922;2024-03-23T13:50:56;2.10;;;1.50;;
78288;SDS011;67539;48.752;12.922;2024-03-23T13:53:24;2.35;;;1.77;;
78288;SDS011;67539;48.752;12.922;2024-03-23T13:55:50;3.25;;;2.92;;
78288;SDS011;67539;48.752;12.922;2024-03-23T13:58:17;3.35;;;2.20;;
78288;SDS011;67539;48.752;12.922;2024-03-23T14:00:45;4.00;;;2.80;;
78288;SDS011;67539;48.752;12.922;2024-03-23T14:03:13;3.10;;;2.33;;
78288;SDS011;67539;48.752;12.922;2024-03-23T14:05:40;2.25;;;1.50;;
78288;SDS011;67539;48.752;12.922;2024-03-23T14:08:08;2.40;;;1.73;;
78288;SDS011;67539;48.752;12.922;2024-03-23T14:10:35;4.03;;;2.05;;
78288;SDS011;67539;48.752;12.922;2024-03-23T14:13:06;2.10;;;1.23;;
78288;SDS011;67539;48.752;12.922;2024-03-23T14:15:33;2.28;;;1.67;;
78288;SDS011;67539;48.752;12.922;2024-03-23T14:18:03;3.92;;;1.90;;
78288;SDS011;67539;48.752;12.922;2024-03-23T14:20:31;2.35;;;1.65;;
78288;SDS011;67539;48.752;12.922;2024-03-23T14:22:58;3.13;;;1.50;;
78288;SDS011;67539;48.752;12.922;2024-03-23T14:25:24;2.00;;;1.40;;
78288;SDS011;67539;48.752;12.922;2024-03-23T14:27:54;3.50;;;1.80;;
78288;SDS011;67539;48.752;12.922;2024-03-23T14:30:20;2.20;;;1.80;;
78288;SDS011;67539;48.752;12.922;2024-03-23T14:32:48;3.72;;;2.00;;
78288;SDS011;67539;48.752;12.922;2024-03-23T14:35:15;2.22;;;1.70;;
78288;SDS011;67539;48.752;12.922;2024-03-23T14:37:43;2.63;;;1.70;;
78288;SDS011;67539;48.752;12.922;2024-03-23T14:40:09;2.45;;;1.48;;
78288;SDS011;67539;48.752;12.922;2024-03-23T14:42:38;2.35;;;1.63;;
78288;SDS011;67539;48.752;12.922;2024-03-23T14:45:04;4.28;;;1.92;;
78288;SDS011;67539;48.752;12.922;2024-03-23T14:47:32;3.30;;;2.00;;
78288;SDS011;67539;48.752;12.922;2024-03-23T14:49:58;2.17;;;1.77;;
78288;SDS011;67539;48.752;12.922;2024-03-23T14:52:27;3.60;;;2.47;;
78288;SDS011;67539;48.752;12.922;2024-03-23T14:54:54;3.88;;;1.88;;
78288;SDS011;67539;48.752;12.922;2024-03-23T14:57:22;3.90;;;2.35;;
78288;SDS011;67539;48.752;12.922;2024-03-23T14:59:48;2.30;;;1.88;;
78288;SDS011;67539;48.752;12.922;2024-03-23T15:02:15;4.82;;;2.38;;
78288;SDS011;67539;48.752;12.922;2024-03-23T15:04:41;3.05;;;2.13;;
78288;SDS011;67539;48.752;12.922;2024-03-23T15:07:08;3.30;;;2.38;;
78288;SDS011;67539;48.752;12.922;2024-03-23T15:09:36;6.10;;;3.05;;
78288;SDS011;67539;48.752;12.922;2024-03-23T15:12:03;5.25;;;4.38;;
78288;SDS011;67539;48.752;12.922;2024-03-23T15:14:30;3.63;;;2.30;;
78288;SDS011;67539;48.752;12.922;2024-03-23T15:16:57;2.72;;;2.08;;
78288;SDS011;67539;48.752;12.922;2024-03-23T15:19:23;2.88;;;2.00;;
78288;SDS011;67539;48.752;12.922;2024-03-23T15:21:50;2.25;;;1.83;;